Christos Xiv — SVA2260 — position and weather

sailwx.info

Track history (hours):
 
Tides and Currents Weather Stations Pressure Air Temp Water Temp Dewpoint Dewpoint Depression Visibility Wind Speed Wind Dir Waves Ship Positions

Christos Xiv

Last reported at 2018-Jun-17 12:26 UTC. Time now 2018-Jun-18 23:18 UTC.
Position N 37°40' E 023°42'.

Length 27 m; draft 3.7 m.

Type: Tug. MMSI: 240873000.

Date/timePositionNaut miles runAvg speedWind from/ knotsBaromVisibWave heightAir tempDewpointWater temp
2018-Jun-17 12:26N 37°40' E 023°42'3 7.2
2018-Jun-17 12:00N 37°43' E 023°40'4 7.1
2018-Jun-17 11:30N 37°46' E 023°39'4 7.1
2018-Jun-17 11:00N 37°49' E 023°37'4 7.1
2018-Jun-17 10:24N 37°53' E 023°35'2 6.3
2018-Jun-17 10:00N 37°56' E 023°35'2 3.5
2018-Jun-17 09:30N 37°57' E 023°33'0 0.3
2018-Jun-17 09:00N 37°57' E 023°33'0 0.1
2018-Jun-17 08:30N 37°57' E 023°33'0 0.2
2018-Jun-17 08:00N 37°57' E 023°33'0 0.0
2018-Jun-17 07:30N 37°57' E 023°33'0 0.0
2018-Jun-17 06:59N 37°57' E 023°33'0 0.0
2018-Jun-17 06:30N 37°57' E 023°33'1 1.5
2018-Jun-17 06:01N 37°58' E 023°34'0 0.0
2018-Jun-17 05:30N 37°58' E 023°34'0 0.0
2018-Jun-17 05:00N 37°58' E 023°34'3 5.3
2018-Jun-17 04:30N 38°00' E 023°32'3 5.2
2018-Jun-17 04:00N 38°02' E 023°31'0 0.0
2018-Jun-17 03:31N 38°02' E 023°31'0 0.0
2018-Jun-17 03:00N 38°02' E 023°31'0 0.0
2018-Jun-17 02:30N 38°02' E 023°31'0 0.0
2018-Jun-17 02:00N 38°02' E 023°31'0 0.0
2018-Jun-17 01:30N 38°02' E 023°31'0 0.0
2018-Jun-17 01:00N 38°02' E 023°31'0 0.0
2018-Jun-17 00:31N 38°02' E 023°31'0 0.0
2018-Jun-17 00:00N 38°02' E 023°31'0 0.0
2018-Jun-16 23:30N 38°02' E 023°31'0 0.0
2018-Jun-16 23:00N 38°02' E 023°31'0 0.0
2018-Jun-16 22:30N 38°02' E 023°31'0 0.0
2018-Jun-16 22:01N 38°02' E 023°31'0 0.0
2018-Jun-16 21:30N 38°02' E 023°31'0 0.0
2018-Jun-16 20:59N 38°02' E 023°31'0 0.0
2018-Jun-16 20:31N 38°02' E 023°31'0 0.0
2018-Jun-16 20:00N 38°02' E 023°31'0 0.0
2018-Jun-16 19:31N 38°02' E 023°31'0 0.0
2018-Jun-16 19:00N 38°02' E 023°31'0 0.0
2018-Jun-16 18:30N 38°02' E 023°31'0 0.0
2018-Jun-16 18:00N 38°02' E 023°31'0 0.0
2018-Jun-16 17:29N 38°02' E 023°31'0 0.0
2018-Jun-16 17:01N 38°02' E 023°31'0 0.0
2018-Jun-16 16:30N 38°02' E 023°31'0 0.0
2018-Jun-16 16:00N 38°02' E 023°31'0 0.0
2018-Jun-16 15:30N 38°02' E 023°31'0 0.0
2018-Jun-16 15:00N 38°02' E 023°31'0 0.0
2018-Jun-16 14:30N 38°02' E 023°31'0 0.0
2018-Jun-16 14:00N 38°02' E 023°31'0 0.0
2018-Jun-16 13:30N 38°02' E 023°31'0 0.0
2018-Jun-16 13:01N 38°02' E 023°31'0 0.0
2018-Jun-16 12:31N 38°02' E 023°31'0 0.0
2018-Jun-16 11:59N 38°02' E 023°31'0 0.0
2018-Jun-16 11:30N 38°02' E 023°31'0 0.0
2018-Jun-16 11:00N 38°02' E 023°31'0 0.0
2018-Jun-16 10:30N 38°02' E 023°31'0 0.0
2018-Jun-16 10:00N 38°02' E 023°31'0 0.0
2018-Jun-16 09:30N 38°02' E 023°31'0 0.0
2018-Jun-16 09:00N 38°02' E 023°31'0 0.0
2018-Jun-16 08:30N 38°02' E 023°31'0 0.0
2018-Jun-16 08:00N 38°02' E 023°31'0 0.0
2018-Jun-16 07:30N 38°02' E 023°31'0 0.0
2018-Jun-16 07:00N 38°02' E 023°31'0 0.0
2018-Jun-16 06:30N 38°02' E 023°31'0 0.0
2018-Jun-16 06:00N 38°02' E 023°31'0 0.0
2018-Jun-16 05:30N 38°02' E 023°31'0 0.0
2018-Jun-16 05:00N 38°02' E 023°31'0 0.0
2018-Jun-16 04:30N 38°02' E 023°31'0 0.0
2018-Jun-16 04:00N 38°02' E 023°31'0 0.0
2018-Jun-16 03:30N 38°02' E 023°31'0 0.0
2018-Jun-16 03:00N 38°02' E 023°31'0 0.0
2018-Jun-16 02:30N 38°02' E 023°31'0 0.0
2018-Jun-16 02:00N 38°02' E 023°31'0 0.0
2018-Jun-16 01:30N 38°02' E 023°31'0 0.0
2018-Jun-16 01:00N 38°02' E 023°31'0 0.0
2018-Jun-16 00:30N 38°02' E 023°31'0 0.0
2018-Jun-16 00:00N 38°02' E 023°31'0 0.0
2018-Jun-15 23:30N 38°02' E 023°31'0 0.0
2018-Jun-15 23:00N 38°02' E 023°31'0 0.0
2018-Jun-15 22:30N 38°02' E 023°31'0 0.0
2018-Jun-15 22:00N 38°02' E 023°31'0 0.0
2018-Jun-15 21:30N 38°02' E 023°31'0 0.0
2018-Jun-15 21:00N 38°02' E 023°31'0 0.0
2018-Jun-15 20:30N 38°02' E 023°31'0 0.0
2018-Jun-15 20:00N 38°02' E 023°31'0 0.0
2018-Jun-15 19:30N 38°02' E 023°31'0 0.0
2018-Jun-15 19:00N 38°02' E 023°31'0 0.0
2018-Jun-15 18:30N 38°02' E 023°31'0 0.0
2018-Jun-15 18:00N 38°02' E 023°31'0 0.0
2018-Jun-15 17:30N 38°02' E 023°31'0 0.0
2018-Jun-15 17:01N 38°02' E 023°31'0 0.0
2018-Jun-15 16:30N 38°02' E 023°31'0 0.0
2018-Jun-15 16:00N 38°02' E 023°31'0 0.0
2018-Jun-15 15:30N 38°02' E 023°31'0 0.0
2018-Jun-15 15:00N 38°02' E 023°31'0 0.0
2018-Jun-15 14:31N 38°02' E 023°31'0 0.0
2018-Jun-15 14:00N 38°02' E 023°31'0 0.0
2018-Jun-15 13:30N 38°02' E 023°31'3 2.3
2018-Jun-15 12:03N 38°02' E 023°35'0 0.7
2018-Jun-15 12:00N 38°02' E 023°35'1 1.3
2018-Jun-15 11:30N 38°02' E 023°36'3 5.2
2018-Jun-15 11:00N 37°60' E 023°33'3 5.5
2018-Jun-15 10:29N 37°57' E 023°33'1 1.9
2018-Jun-15 10:01N 37°57' E 023°34'1 1.8
2018-Jun-15 09:31N 37°57' E 023°33'0 0.0
2018-Jun-15 09:00N 37°57' E 023°33'0 0.0
2018-Jun-15 08:30N 37°57' E 023°33'0 0.0
2018-Jun-15 08:00N 37°57' E 023°33'0 1.0
2018-Jun-15 07:30N 37°58' E 023°33'4 7.8
2018-Jun-15 06:59N 38°01' E 023°35'0 0.6
2018-Jun-15 06:30N 38°01' E 023°35'0 0.0
2018-Jun-15 06:00N 38°01' E 023°35'0 0.0
2018-Jun-15 05:30N 38°01' E 023°35'0 0.0
2018-Jun-15 05:00N 38°01' E 023°35'0 0.0
2018-Jun-15 04:30N 38°01' E 023°35'0 0.0
2018-Jun-15 04:01N 38°01' E 023°35'0 0.0
2018-Jun-15 03:30N 38°01' E 023°35'0 0.0
2018-Jun-15 02:59N 38°01' E 023°35'0 0.0
2018-Jun-15 02:30N 38°01' E 023°35'0 0.0
2018-Jun-15 02:00N 38°01' E 023°35'0 0.0
2018-Jun-15 01:30N 38°01' E 023°35'0 0.0
2018-Jun-15 01:00N 38°01' E 023°35'0 0.0
2018-Jun-15 00:30N 38°01' E 023°35'0 0.0
2018-Jun-15 00:00N 38°01' E 023°35'0 0.0
2018-Jun-14 23:30N 38°01' E 023°35'0 0.0
2018-Jun-14 23:00N 38°01' E 023°35'0 0.0
2018-Jun-14 22:30N 38°01' E 023°35'0 0.0
2018-Jun-14 22:00N 38°01' E 023°35'0 0.0
2018-Jun-14 21:31N 38°01' E 023°35'0 0.0
2018-Jun-14 21:01N 38°01' E 023°35'0 0.0
2018-Jun-14 20:30N 38°01' E 023°35'0 0.0
2018-Jun-14 20:00N 38°01' E 023°35'0 0.0
2018-Jun-14 19:31N 38°01' E 023°35'0 0.0
2018-Jun-14 19:01N 38°01' E 023°35'0 0.5
2018-Jun-14 18:29N 38°02' E 023°36'4 8.3
2018-Jun-14 18:00N 38°02' E 023°31'0 0.0
2018-Jun-14 17:30N 38°02' E 023°31'0 0.0
2018-Jun-14 17:00N 38°02' E 023°31'0 0.0
2018-Jun-14 16:30N 38°02' E 023°31'0 0.0
2018-Jun-14 16:00N 38°02' E 023°31'0 0.0
2018-Jun-14 15:30N 38°02' E 023°31'0 0.0
2018-Jun-14 15:00N 38°02' E 023°31'0 0.0
2018-Jun-14 14:31N 38°02' E 023°31'0 0.0
2018-Jun-14 14:01N 38°02' E 023°31'0 0.0
2018-Jun-14 13:30N 38°02' E 023°31'0 0.0
2018-Jun-14 13:00N 38°02' E 023°31'0 0.0
2018-Jun-14 12:30N 38°02' E 023°31'0 0.0
2018-Jun-14 12:00N 38°02' E 023°31'0 0.0
2018-Jun-14 11:31N 38°02' E 023°31'0 0.0
2018-Jun-14 11:00N 38°02' E 023°31'0 0.0
2018-Jun-14 10:30N 38°02' E 023°31'0 0.0
2018-Jun-14 10:00N 38°02' E 023°31'0 0.0
2018-Jun-14 09:30N 38°02' E 023°31'0 0.0
2018-Jun-14 09:01N 38°02' E 023°31'0 0.0
2018-Jun-14 08:30N 38°02' E 023°31'0 0.0
2018-Jun-14 08:00N 38°02' E 023°31'0 0.0
2018-Jun-14 07:30N 38°02' E 023°31'0 0.0
2018-Jun-14 07:00N 38°02' E 023°31'0 0.0
2018-Jun-14 05:24N 38°02' E 023°31'0 0.0
2018-Jun-14 05:00N 38°02' E 023°31'0 0.0
2018-Jun-14 04:30N 38°02' E 023°31'0 0.0
2018-Jun-14 04:00N 38°02' E 023°31'0 0.0
2018-Jun-14 03:30N 38°02' E 023°31'0 0.0
2018-Jun-14 03:00N 38°02' E 023°31'0 0.0
2018-Jun-14 02:30N 38°02' E 023°31'0 0.0
2018-Jun-14 02:01N 38°02' E 023°31'0 0.0
2018-Jun-14 01:30N 38°02' E 023°31'0 0.0
2018-Jun-14 01:01N 38°02' E 023°31'0 0.0
2018-Jun-14 00:30N 38°02' E 023°31'0 0.0
2018-Jun-14 00:00N 38°02' E 023°31'0 0.0
2018-Jun-13 23:30N 38°02' E 023°31'0 0.0
2018-Jun-13 23:00N 38°02' E 023°31'0 0.0
2018-Jun-13 22:30N 38°02' E 023°31'0 0.0
2018-Jun-13 22:00N 38°02' E 023°31'0 0.0
2018-Jun-13 21:30N 38°02' E 023°31'0 0.0
2018-Jun-13 21:00N 38°02' E 023°31'0 0.0
2018-Jun-13 20:30N 38°02' E 023°31'0 0.0
2018-Jun-13 20:00N 38°02' E 023°31'0 0.0
2018-Jun-13 19:30N 38°02' E 023°31'0 0.0
2018-Jun-13 19:00N 38°02' E 023°31'0 0.0
2018-Jun-13 18:30N 38°02' E 023°31'0 0.0
2018-Jun-13 18:00N 38°02' E 023°31'0 0.0
2018-Jun-13 17:30N 38°02' E 023°31'0 0.0
2018-Jun-13 17:00N 38°02' E 023°31'0 0.0
2018-Jun-13 16:30N 38°02' E 023°31'0 0.0
2018-Jun-13 16:00N 38°02' E 023°31'0 0.0
2018-Jun-13 15:30N 38°02' E 023°31'0 0.0
2018-Jun-13 15:00N 38°02' E 023°31'0 0.0
2018-Jun-13 14:30N 38°02' E 023°31'0 0.0
2018-Jun-13 14:00N 38°02' E 023°31'0 0.0
2018-Jun-13 13:30N 38°02' E 023°31'0 0.0
2018-Jun-13 12:59N 38°02' E 023°31'0 0.0
2018-Jun-13 12:31N 38°02' E 023°31'0 0.0
2018-Jun-13 12:00N 38°02' E 023°31'0 0.0
2018-Jun-13 11:31N 38°02' E 023°31'0 0.0
2018-Jun-13 11:00N 38°02' E 023°31'0 0.0
2018-Jun-13 10:29N 38°02' E 023°31'0 0.0
2018-Jun-13 10:00N 38°02' E 023°31'0 0.0
2018-Jun-13 09:30N 38°02' E 023°31'0 0.0
2018-Jun-13 09:00N 38°02' E 023°31'0 0.0
2018-Jun-13 08:30N 38°02' E 023°31'0 0.0
2018-Jun-13 08:00N 38°02' E 023°31'0 0.0
2018-Jun-13 07:30N 38°02' E 023°31'0 0.0
2018-Jun-13 07:00N 38°02' E 023°31'0 0.0
2018-Jun-13 06:31N 38°02' E 023°31'0 0.0
2018-Jun-13 06:00N 38°02' E 023°31'0 0.0
2018-Jun-13 05:30N 38°02' E 023°31'0 0.0
2018-Jun-13 05:00N 38°02' E 023°31'0 0.0
2018-Jun-13 04:30N 38°02' E 023°31'0 0.0
2018-Jun-13 04:00N 38°02' E 023°31'0 0.0
2018-Jun-13 03:30N 38°02' E 023°31'0 0.0
2018-Jun-13 03:00N 38°02' E 023°31'0 0.0
2018-Jun-13 02:30N 38°02' E 023°31'0 0.0
2018-Jun-13 02:00N 38°02' E 023°31'0 0.0
2018-Jun-13 01:31N 38°02' E 023°31'0 0.0
2018-Jun-13 01:00N 38°02' E 023°31'0 0.0
2018-Jun-13 00:30N 38°02' E 023°31'0 0.0
2018-Jun-13 00:00N 38°02' E 023°31'0 0.0
2018-Jun-12 23:30N 38°02' E 023°31'0 0.0
2018-Jun-12 23:00N 38°02' E 023°31'0 0.0
2018-Jun-12 22:30N 38°02' E 023°31'0 0.0
2018-Jun-12 22:00N 38°02' E 023°31'0 0.0
2018-Jun-12 21:30N 38°02' E 023°31'0 0.0
2018-Jun-12 21:00N 38°02' E 023°31'0 0.0
2018-Jun-12 20:30N 38°02' E 023°31'0 0.0
2018-Jun-12 20:00N 38°02' E 023°31'0 0.0
2018-Jun-12 19:30N 38°02' E 023°31'0 0.0
2018-Jun-12 19:00N 38°02' E 023°31'0 0.0
2018-Jun-12 18:31N 38°02' E 023°31'0 0.0
2018-Jun-12 18:00N 38°02' E 023°31'0 0.0
2018-Jun-12 17:30N 38°02' E 023°31'0 0.0
2018-Jun-12 17:00N 38°02' E 023°31'0 0.0
2018-Jun-12 16:31N 38°02' E 023°31'0 0.0
2018-Jun-12 16:00N 38°02' E 023°31'0 0.0
2018-Jun-12 15:29N 38°02' E 023°31'0 0.0
2018-Jun-12 15:00N 38°02' E 023°31'0 0.2
2018-Jun-12 14:30N 38°02' E 023°31'0 0.2
2018-Jun-12 14:00N 38°02' E 023°31'1 1.1
2018-Jun-12 13:30N 38°02' E 023°31'0 0.4
2018-Jun-12 13:00N 38°02' E 023°31'3 6.7
2018-Jun-12 12:30N 38°01' E 023°35'0 0.0
2018-Jun-12 12:00N 38°01' E 023°36'0 0.0
2018-Jun-12 11:30N 38°01' E 023°36'0 0.4
2018-Jun-12 11:00N 38°02' E 023°36'0 0.1
2018-Jun-12 10:30N 38°02' E 023°36'0 0.5
2018-Jun-12 10:00N 38°01' E 023°36'0 0.0
2018-Jun-12 09:30N 38°01' E 023°36'2 3.3
2018-Jun-12 09:00N 38°02' E 023°33'2 0.1
2018-Jun-10 12:46N 38°02' E 023°31'0 0.4
2018-Jun-10 12:31N 38°02' E 023°31'0 0.2
2018-Jun-10 12:00N 38°02' E 023°31'0 0.0
2018-Jun-10 11:30N 38°02' E 023°31'0 0.0
2018-Jun-10 11:00N 38°02' E 023°31'0 0.0
2018-Jun-10 10:30N 38°02' E 023°31'0 0.0
2018-Jun-10 10:00N 38°02' E 023°31'0 0.0
2018-Jun-10 09:30N 38°02' E 023°31'0 0.0
2018-Jun-10 09:00N 38°02' E 023°31'0 0.0
2018-Jun-10 08:29N 38°02' E 023°31'0 0.0
2018-Jun-10 08:00N 38°02' E 023°31'0 0.0
2018-Jun-10 07:30N 38°02' E 023°31'0 0.0
2018-Jun-10 07:00N 38°02' E 023°31'0 0.0
2018-Jun-10 06:30N 38°02' E 023°31'0 0.0
2018-Jun-10 06:00N 38°02' E 023°31'0 0.4
2018-Jun-10 05:30N 38°02' E 023°31'4 7.4
2018-Jun-10 05:00N 37°59' E 023°32'0 0.6
2018-Jun-10 04:30N 37°58' E 023°32'0 0.6
2018-Jun-10 04:00N 37°59' E 023°32'3 6.8
2018-Jun-10 03:30N 38°02' E 023°31'0 1.0
2018-Jun-10 03:00N 38°02' E 023°31'0 0.0
2018-Jun-10 02:29N 38°02' E 023°31'0 0.0
2018-Jun-10 01:59N 38°02' E 023°31'0 0.0
2018-Jun-10 01:30N 38°02' E 023°31'0 0.0
2018-Jun-10 01:00N 38°02' E 023°31'0 0.0
2018-Jun-10 00:15N 38°02' E 023°31'0 0.0
2018-Jun-09 23:59N 38°02' E 023°31'0 0.7
2018-Jun-09 23:30N 38°02' E 023°31'4 7.7
2018-Jun-09 23:00N 38°01' E 023°36'0 0.0
2018-Jun-09 22:29N 38°01' E 023°36'0 0.0
2018-Jun-09 21:56N 38°01' E 023°36'0 0.0
2018-Jun-09 21:30N 38°01' E 023°36'0 0.0
2018-Jun-09 21:00N 38°01' E 023°36'0 0.0
2018-Jun-09 20:30N 38°01' E 023°36'0 0.0
2018-Jun-09 19:57N 38°01' E 023°36'0 0.0
2018-Jun-09 19:30N 38°01' E 023°36'0 0.0
2018-Jun-09 19:00N 38°01' E 023°36'0 0.0
2018-Jun-09 18:30N 38°01' E 023°36'0 0.0
2018-Jun-09 18:00N 38°01' E 023°36'0 0.0
2018-Jun-09 17:30N 38°01' E 023°36'3 5.6
2018-Jun-09 16:59N 37°59' E 023°33'4 1.7
2018-Jun-09 14:52N 38°02' E 023°31'0 0.0
2018-Jun-09 14:30N 38°02' E 023°31'0 0.0
2018-Jun-09 13:53N 38°02' E 023°31'0 0.0
2018-Jun-09 13:28N 38°02' E 023°31'0 0.0
2018-Jun-09 12:58N 38°02' E 023°31'0 0.2
2018-Jun-09 12:30N 38°02' E 023°30'0 0.0
2018-Jun-09 11:59N 38°02' E 023°30'0 0.0
2018-Jun-09 11:30N 38°02' E 023°30'0 0.0
2018-Jun-09 11:00N 38°02' E 023°30'0 0.0
2018-Jun-09 10:30N 38°02' E 023°30'0 0.7
2018-Jun-09 10:00N 38°02' E 023°31'0 0.0
2018-Jun-08 15:57N 38°02' E 023°31'1 2.2
2018-Jun-08 15:30N 38°01' E 023°31'4 8.0
2018-Jun-08 15:00N 37°58' E 023°33'0 0.8
2018-Jun-08 14:30N 37°57' E 023°33'0 0.2
2018-Jun-08 14:00N 37°57' E 023°33'0 0.0
2018-Jun-08 13:30N 37°57' E 023°33'0 0.0
2018-Jun-08 13:00N 37°57' E 023°33'0 0.0
2018-Jun-08 12:30N 37°57' E 023°33'0 0.0
2018-Jun-08 12:00N 37°57' E 023°33'0 0.0
2018-Jun-08 11:30N 37°57' E 023°33'0 0.0
2018-Jun-08 10:58N 37°57' E 023°33'0 0.0
2018-Jun-08 10:30N 37°57' E 023°33'0 0.0
2018-Jun-08 10:00N 37°57' E 023°33'0 0.0
2018-Jun-08 09:31N 37°57' E 023°33'0 0.0
2018-Jun-08 09:00N 37°57' E 023°33'0 0.0
2018-Jun-08 08:30N 37°57' E 023°33'0 0.0
2018-Jun-08 08:00N 37°57' E 023°33'0 0.0
2018-Jun-08 07:30N 37°57' E 023°33'0 0.0
2018-Jun-08 07:00N 37°57' E 023°33'0 0.0
2018-Jun-08 06:30N 37°57' E 023°33'0 0.0
2018-Jun-08 06:00N 37°57' E 023°33'0 0.0
2018-Jun-08 05:30N 37°57' E 023°33'0 0.0
2018-Jun-08 05:00N 37°57' E 023°33'0 0.0
2018-Jun-08 04:30N 37°57' E 023°33'0 0.0
2018-Jun-08 04:00N 37°57' E 023°33'0 0.0
2018-Jun-08 03:30N 37°57' E 023°33'0 0.0
2018-Jun-08 03:00N 37°57' E 023°33'0 0.0
2018-Jun-08 02:30N 37°57' E 023°33'0 0.0
2018-Jun-08 02:00N 37°57' E 023°33'0 0.0
2018-Jun-08 01:30N 37°57' E 023°33'0 0.0
2018-Jun-08 01:00N 37°57' E 023°33'0 0.0
2018-Jun-08 00:30N 37°57' E 023°33'0 0.0
2018-Jun-08 00:00N 37°57' E 023°33'0 0.0
2018-Jun-07 23:30N 37°57' E 023°33'0 0.0
2018-Jun-07 23:00N 37°57' E 023°33'0 0.0
2018-Jun-07 22:30N 37°57' E 023°33'0 0.0
2018-Jun-07 22:00N 37°57' E 023°33'0 0.0
2018-Jun-07 21:30N 37°57' E 023°33'0 0.0
2018-Jun-07 21:00N 37°57' E 023°33'0 0.0
2018-Jun-07 20:30N 37°57' E 023°33'0 0.0
2018-Jun-07 20:00N 37°57' E 023°33'0 0.0
2018-Jun-07 19:30N 37°57' E 023°33'0 0.0
2018-Jun-07 19:00N 37°57' E 023°33'0 0.0
2018-Jun-07 18:30N 37°57' E 023°33'0 0.0
2018-Jun-07 18:00N 37°57' E 023°33'0 0.0
2018-Jun-07 17:30N 37°57' E 023°33'0 0.0
2018-Jun-07 17:00N 37°57' E 023°33'0 0.0
2018-Jun-07 16:30N 37°57' E 023°33'0 0.0
2018-Jun-07 16:00N 37°57' E 023°33'0 0.0
2018-Jun-07 15:30N 37°57' E 023°33'0 0.0
2018-Jun-07 15:00N 37°57' E 023°33'0 0.0
2018-Jun-07 14:30N 37°57' E 023°33'0 0.0
2018-Jun-07 14:00N 37°57' E 023°33'0 0.0
2018-Jun-07 13:30N 37°57' E 023°33'0 0.0
2018-Jun-07 13:00N 37°57' E 023°33'0 0.0
2018-Jun-07 12:30N 37°57' E 023°33'  
Track history (hours):
 
Tides and Currents Weather Stations Pressure Air Temp Water Temp Dewpoint Dewpoint Depression Visibility Wind Speed Wind Dir Waves Ship Positions

Christos Xiv

Last reported at 2018-Jun-17 12:26 UTC. Time now 2018-Jun-18 23:18 UTC.
Position N 37°40' E 023°42'.

Length 27 m; draft 3.7 m.

Type: Tug. MMSI: 240873000.

Date/timePositionNaut miles runAvg speedWind from/ knotsBaromVisibWave heightAir tempDewpointWater temp
2018-Jun-17 12:26N 37°40' E 023°42'3 7.2
2018-Jun-17 12:00N 37°43' E 023°40'4 7.1
2018-Jun-17 11:30N 37°46' E 023°39'4 7.1
2018-Jun-17 11:00N 37°49' E 023°37'4 7.1
2018-Jun-17 10:24N 37°53' E 023°35'2 6.3
2018-Jun-17 10:00N 37°56' E 023°35'2 3.5
2018-Jun-17 09:30N 37°57' E 023°33'0 0.3
2018-Jun-17 09:00N 37°57' E 023°33'0 0.1
2018-Jun-17 08:30N 37°57' E 023°33'0 0.2
2018-Jun-17 08:00N 37°57' E 023°33'0 0.0
2018-Jun-17 07:30N 37°57' E 023°33'0 0.0
2018-Jun-17 06:59N 37°57' E 023°33'0 0.0
2018-Jun-17 06:30N 37°57' E 023°33'1 1.5
2018-Jun-17 06:01N 37°58' E 023°34'0 0.0
2018-Jun-17 05:30N 37°58' E 023°34'0 0.0
2018-Jun-17 05:00N 37°58' E 023°34'3 5.3
2018-Jun-17 04:30N 38°00' E 023°32'3 5.2
2018-Jun-17 04:00N 38°02' E 023°31'0 0.0
2018-Jun-17 03:31N 38°02' E 023°31'0 0.0
2018-Jun-17 03:00N 38°02' E 023°31'0 0.0
2018-Jun-17 02:30N 38°02' E 023°31'0 0.0
2018-Jun-17 02:00N 38°02' E 023°31'0 0.0
2018-Jun-17 01:30N 38°02' E 023°31'0 0.0
2018-Jun-17 01:00N 38°02' E 023°31'0 0.0
2018-Jun-17 00:31N 38°02' E 023°31'0 0.0
2018-Jun-17 00:00N 38°02' E 023°31'0 0.0
2018-Jun-16 23:30N 38°02' E 023°31'0 0.0
2018-Jun-16 23:00N 38°02' E 023°31'0 0.0
2018-Jun-16 22:30N 38°02' E 023°31'0 0.0
2018-Jun-16 22:01N 38°02' E 023°31'0 0.0
2018-Jun-16 21:30N 38°02' E 023°31'0 0.0
2018-Jun-16 20:59N 38°02' E 023°31'0 0.0
2018-Jun-16 20:31N 38°02' E 023°31'0 0.0
2018-Jun-16 20:00N 38°02' E 023°31'0 0.0
2018-Jun-16 19:31N 38°02' E 023°31'0 0.0
2018-Jun-16 19:00N 38°02' E 023°31'0 0.0
2018-Jun-16 18:30N 38°02' E 023°31'0 0.0
2018-Jun-16 18:00N 38°02' E 023°31'0 0.0
2018-Jun-16 17:29N 38°02' E 023°31'0 0.0
2018-Jun-16 17:01N 38°02' E 023°31'0 0.0
2018-Jun-16 16:30N 38°02' E 023°31'0 0.0
2018-Jun-16 16:00N 38°02' E 023°31'0 0.0
2018-Jun-16 15:30N 38°02' E 023°31'0 0.0
2018-Jun-16 15:00N 38°02' E 023°31'0 0.0
2018-Jun-16 14:30N 38°02' E 023°31'0 0.0
2018-Jun-16 14:00N 38°02' E 023°31'0 0.0
2018-Jun-16 13:30N 38°02' E 023°31'0 0.0
2018-Jun-16 13:01N 38°02' E 023°31'0 0.0
2018-Jun-16 12:31N 38°02' E 023°31'0 0.0
2018-Jun-16 11:59N 38°02' E 023°31'0 0.0
2018-Jun-16 11:30N 38°02' E 023°31'0 0.0
2018-Jun-16 11:00N 38°02' E 023°31'0 0.0
2018-Jun-16 10:30N 38°02' E 023°31'0 0.0
2018-Jun-16 10:00N 38°02' E 023°31'0 0.0
2018-Jun-16 09:30N 38°02' E 023°31'0 0.0
2018-Jun-16 09:00N 38°02' E 023°31'0 0.0
2018-Jun-16 08:30N 38°02' E 023°31'0 0.0
2018-Jun-16 08:00N 38°02' E 023°31'0 0.0
2018-Jun-16 07:30N 38°02' E 023°31'0 0.0
2018-Jun-16 07:00N 38°02' E 023°31'0 0.0
2018-Jun-16 06:30N 38°02' E 023°31'0 0.0
2018-Jun-16 06:00N 38°02' E 023°31'0 0.0
2018-Jun-16 05:30N 38°02' E 023°31'0 0.0
2018-Jun-16 05:00N 38°02' E 023°31'0 0.0
2018-Jun-16 04:30N 38°02' E 023°31'0 0.0
2018-Jun-16 04:00N 38°02' E 023°31'0 0.0
2018-Jun-16 03:30N 38°02' E 023°31'0 0.0
2018-Jun-16 03:00N 38°02' E 023°31'0 0.0
2018-Jun-16 02:30N 38°02' E 023°31'0 0.0
2018-Jun-16 02:00N 38°02' E 023°31'0 0.0
2018-Jun-16 01:30N 38°02' E 023°31'0 0.0
2018-Jun-16 01:00N 38°02' E 023°31'0 0.0
2018-Jun-16 00:30N 38°02' E 023°31'0 0.0
2018-Jun-16 00:00N 38°02' E 023°31'0 0.0
2018-Jun-15 23:30N 38°02' E 023°31'0 0.0
2018-Jun-15 23:00N 38°02' E 023°31'0 0.0
2018-Jun-15 22:30N 38°02' E 023°31'0 0.0
2018-Jun-15 22:00N 38°02' E 023°31'0 0.0
2018-Jun-15 21:30N 38°02' E 023°31'0 0.0
2018-Jun-15 21:00N 38°02' E 023°31'0 0.0
2018-Jun-15 20:30N 38°02' E 023°31'0 0.0
2018-Jun-15 20:00N 38°02' E 023°31'0 0.0
2018-Jun-15 19:30N 38°02' E 023°31'0 0.0
2018-Jun-15 19:00N 38°02' E 023°31'0 0.0
2018-Jun-15 18:30N 38°02' E 023°31'0 0.0
2018-Jun-15 18:00N 38°02' E 023°31'0 0.0
2018-Jun-15 17:30N 38°02' E 023°31'0 0.0
2018-Jun-15 17:01N 38°02' E 023°31'0 0.0
2018-Jun-15 16:30N 38°02' E 023°31'0 0.0
2018-Jun-15 16:00N 38°02' E 023°31'0 0.0
2018-Jun-15 15:30N 38°02' E 023°31'0 0.0
2018-Jun-15 15:00N 38°02' E 023°31'0 0.0
2018-Jun-15 14:31N 38°02' E 023°31'0 0.0
2018-Jun-15 14:00N 38°02' E 023°31'0 0.0
2018-Jun-15 13:30N 38°02' E 023°31'3 2.3
2018-Jun-15 12:03N 38°02' E 023°35'0 0.7
2018-Jun-15 12:00N 38°02' E 023°35'1 1.3
2018-Jun-15 11:30N 38°02' E 023°36'3 5.2
2018-Jun-15 11:00N 37°60' E 023°33'3 5.5
2018-Jun-15 10:29N 37°57' E 023°33'1 1.9
2018-Jun-15 10:01N 37°57' E 023°34'1 1.8
2018-Jun-15 09:31N 37°57' E 023°33'0 0.0
2018-Jun-15 09:00N 37°57' E 023°33'0 0.0
2018-Jun-15 08:30N 37°57' E 023°33'0 0.0
2018-Jun-15 08:00N 37°57' E 023°33'0 1.0
2018-Jun-15 07:30N 37°58' E 023°33'4 7.8
2018-Jun-15 06:59N 38°01' E 023°35'0 0.6
2018-Jun-15 06:30N 38°01' E 023°35'0 0.0
2018-Jun-15 06:00N 38°01' E 023°35'0 0.0
2018-Jun-15 05:30N 38°01' E 023°35'0 0.0
2018-Jun-15 05:00N 38°01' E 023°35'0 0.0
2018-Jun-15 04:30N 38°01' E 023°35'0 0.0
2018-Jun-15 04:01N 38°01' E 023°35'0 0.0
2018-Jun-15 03:30N 38°01' E 023°35'0 0.0
2018-Jun-15 02:59N 38°01' E 023°35'0 0.0
2018-Jun-15 02:30N 38°01' E 023°35'0 0.0
2018-Jun-15 02:00N 38°01' E 023°35'0 0.0
2018-Jun-15 01:30N 38°01' E 023°35'0 0.0
2018-Jun-15 01:00N 38°01' E 023°35'0 0.0
2018-Jun-15 00:30N 38°01' E 023°35'0 0.0
2018-Jun-15 00:00N 38°01' E 023°35'0 0.0
2018-Jun-14 23:30N 38°01' E 023°35'0 0.0
2018-Jun-14 23:00N 38°01' E 023°35'0 0.0
2018-Jun-14 22:30N 38°01' E 023°35'0 0.0
2018-Jun-14 22:00N 38°01' E 023°35'0 0.0
2018-Jun-14 21:31N 38°01' E 023°35'0 0.0
2018-Jun-14 21:01N 38°01' E 023°35'0 0.0
2018-Jun-14 20:30N 38°01' E 023°35'0 0.0
2018-Jun-14 20:00N 38°01' E 023°35'0 0.0
2018-Jun-14 19:31N 38°01' E 023°35'0 0.0
2018-Jun-14 19:01N 38°01' E 023°35'0 0.5
2018-Jun-14 18:29N 38°02' E 023°36'4 8.3
2018-Jun-14 18:00N 38°02' E 023°31'0 0.0
2018-Jun-14 17:30N 38°02' E 023°31'0 0.0
2018-Jun-14 17:00N 38°02' E 023°31'0 0.0
2018-Jun-14 16:30N 38°02' E 023°31'0 0.0
2018-Jun-14 16:00N 38°02' E 023°31'0 0.0
2018-Jun-14 15:30N 38°02' E 023°31'0 0.0
2018-Jun-14 15:00N 38°02' E 023°31'0 0.0
2018-Jun-14 14:31N 38°02' E 023°31'0 0.0
2018-Jun-14 14:01N 38°02' E 023°31'0 0.0
2018-Jun-14 13:30N 38°02' E 023°31'0 0.0
2018-Jun-14 13:00N 38°02' E 023°31'0 0.0
2018-Jun-14 12:30N 38°02' E 023°31'0 0.0
2018-Jun-14 12:00N 38°02' E 023°31'0 0.0
2018-Jun-14 11:31N 38°02' E 023°31'0 0.0
2018-Jun-14 11:00N 38°02' E 023°31'0 0.0
2018-Jun-14 10:30N 38°02' E 023°31'0 0.0
2018-Jun-14 10:00N 38°02' E 023°31'0 0.0
2018-Jun-14 09:30N 38°02' E 023°31'0 0.0
2018-Jun-14 09:01N 38°02' E 023°31'0 0.0
2018-Jun-14 08:30N 38°02' E 023°31'0 0.0
2018-Jun-14 08:00N 38°02' E 023°31'0 0.0
2018-Jun-14 07:30N 38°02' E 023°31'0 0.0
2018-Jun-14 07:00N 38°02' E 023°31'0 0.0
2018-Jun-14 05:24N 38°02' E 023°31'0 0.0
2018-Jun-14 05:00N 38°02' E 023°31'0 0.0
2018-Jun-14 04:30N 38°02' E 023°31'0 0.0
2018-Jun-14 04:00N 38°02' E 023°31'0 0.0
2018-Jun-14 03:30N 38°02' E 023°31'0 0.0
2018-Jun-14 03:00N 38°02' E 023°31'0 0.0
2018-Jun-14 02:30N 38°02' E 023°31'0 0.0
2018-Jun-14 02:01N 38°02' E 023°31'0 0.0
2018-Jun-14 01:30N 38°02' E 023°31'0 0.0
2018-Jun-14 01:01N 38°02' E 023°31'0 0.0
2018-Jun-14 00:30N 38°02' E 023°31'0 0.0
2018-Jun-14 00:00N 38°02' E 023°31'0 0.0
2018-Jun-13 23:30N 38°02' E 023°31'0 0.0
2018-Jun-13 23:00N 38°02' E 023°31'0 0.0
2018-Jun-13 22:30N 38°02' E 023°31'0 0.0
2018-Jun-13 22:00N 38°02' E 023°31'0 0.0
2018-Jun-13 21:30N 38°02' E 023°31'0 0.0
2018-Jun-13 21:00N 38°02' E 023°31'0 0.0
2018-Jun-13 20:30N 38°02' E 023°31'0 0.0
2018-Jun-13 20:00N 38°02' E 023°31'0 0.0
2018-Jun-13 19:30N 38°02' E 023°31'0 0.0
2018-Jun-13 19:00N 38°02' E 023°31'0 0.0
2018-Jun-13 18:30N 38°02' E 023°31'0 0.0
2018-Jun-13 18:00N 38°02' E 023°31'0 0.0
2018-Jun-13 17:30N 38°02' E 023°31'0 0.0
2018-Jun-13 17:00N 38°02' E 023°31'0 0.0
2018-Jun-13 16:30N 38°02' E 023°31'0 0.0
2018-Jun-13 16:00N 38°02' E 023°31'0 0.0
2018-Jun-13 15:30N 38°02' E 023°31'0 0.0
2018-Jun-13 15:00N 38°02' E 023°31'0 0.0
2018-Jun-13 14:30N 38°02' E 023°31'0 0.0
2018-Jun-13 14:00N 38°02' E 023°31'0 0.0
2018-Jun-13 13:30N 38°02' E 023°31'0 0.0
2018-Jun-13 12:59N 38°02' E 023°31'0 0.0
2018-Jun-13 12:31N 38°02' E 023°31'0 0.0
2018-Jun-13 12:00N 38°02' E 023°31'0 0.0
2018-Jun-13 11:31N 38°02' E 023°31'0 0.0
2018-Jun-13 11:00N 38°02' E 023°31'0 0.0
2018-Jun-13 10:29N 38°02' E 023°31'0 0.0
2018-Jun-13 10:00N 38°02' E 023°31'0 0.0
2018-Jun-13 09:30N 38°02' E 023°31'0 0.0
2018-Jun-13 09:00N 38°02' E 023°31'0 0.0
2018-Jun-13 08:30N 38°02' E 023°31'0 0.0
2018-Jun-13 08:00N 38°02' E 023°31'0 0.0
2018-Jun-13 07:30N 38°02' E 023°31'0 0.0
2018-Jun-13 07:00N 38°02' E 023°31'0 0.0
2018-Jun-13 06:31N 38°02' E 023°31'0 0.0
2018-Jun-13 06:00N 38°02' E 023°31'0 0.0
2018-Jun-13 05:30N 38°02' E 023°31'0 0.0
2018-Jun-13 05:00N 38°02' E 023°31'0 0.0
2018-Jun-13 04:30N 38°02' E 023°31'0 0.0
2018-Jun-13 04:00N 38°02' E 023°31'0 0.0
2018-Jun-13 03:30N 38°02' E 023°31'0 0.0
2018-Jun-13 03:00N 38°02' E 023°31'0 0.0
2018-Jun-13 02:30N 38°02' E 023°31'0 0.0
2018-Jun-13 02:00N 38°02' E 023°31'0 0.0
2018-Jun-13 01:31N 38°02' E 023°31'0 0.0
2018-Jun-13 01:00N 38°02' E 023°31'0 0.0
2018-Jun-13 00:30N 38°02' E 023°31'0 0.0
2018-Jun-13 00:00N 38°02' E 023°31'0 0.0
2018-Jun-12 23:30N 38°02' E 023°31'0 0.0
2018-Jun-12 23:00N 38°02' E 023°31'0 0.0
2018-Jun-12 22:30N 38°02' E 023°31'0 0.0
2018-Jun-12 22:00N 38°02' E 023°31'0 0.0
2018-Jun-12 21:30N 38°02' E 023°31'0 0.0
2018-Jun-12 21:00N 38°02' E 023°31'0 0.0
2018-Jun-12 20:30N 38°02' E 023°31'0 0.0
2018-Jun-12 20:00N 38°02' E 023°31'0 0.0
2018-Jun-12 19:30N 38°02' E 023°31'0 0.0
2018-Jun-12 19:00N 38°02' E 023°31'0 0.0
2018-Jun-12 18:31N 38°02' E 023°31'0 0.0
2018-Jun-12 18:00N 38°02' E 023°31'0 0.0
2018-Jun-12 17:30N 38°02' E 023°31'0 0.0
2018-Jun-12 17:00N 38°02' E 023°31'0 0.0
2018-Jun-12 16:31N 38°02' E 023°31'0 0.0
2018-Jun-12 16:00N 38°02' E 023°31'0 0.0
2018-Jun-12 15:29N 38°02' E 023°31'0 0.0
2018-Jun-12 15:00N 38°02' E 023°31'0 0.2
2018-Jun-12 14:30N 38°02' E 023°31'0 0.2
2018-Jun-12 14:00N 38°02' E 023°31'1 1.1
2018-Jun-12 13:30N 38°02' E 023°31'0 0.4
2018-Jun-12 13:00N 38°02' E 023°31'3 6.7
2018-Jun-12 12:30N 38°01' E 023°35'0 0.0
2018-Jun-12 12:00N 38°01' E 023°36'0 0.0
2018-Jun-12 11:30N 38°01' E 023°36'0 0.4
2018-Jun-12 11:00N 38°02' E 023°36'0 0.1
2018-Jun-12 10:30N 38°02' E 023°36'0 0.5
2018-Jun-12 10:00N 38°01' E 023°36'0 0.0
2018-Jun-12 09:30N 38°01' E 023°36'2 3.3
2018-Jun-12 09:00N 38°02' E 023°33'2 0.1
2018-Jun-10 12:46N 38°02' E 023°31'0 0.4
2018-Jun-10 12:31N 38°02' E 023°31'0 0.2
2018-Jun-10 12:00N 38°02' E 023°31'0 0.0
2018-Jun-10 11:30N 38°02' E 023°31'0 0.0
2018-Jun-10 11:00N 38°02' E 023°31'0 0.0
2018-Jun-10 10:30N 38°02' E 023°31'0 0.0
2018-Jun-10 10:00N 38°02' E 023°31'0 0.0
2018-Jun-10 09:30N 38°02' E 023°31'0 0.0
2018-Jun-10 09:00N 38°02' E 023°31'0 0.0
2018-Jun-10 08:29N 38°02' E 023°31'0 0.0
2018-Jun-10 08:00N 38°02' E 023°31'0 0.0
2018-Jun-10 07:30N 38°02' E 023°31'0 0.0
2018-Jun-10 07:00N 38°02' E 023°31'0 0.0
2018-Jun-10 06:30N 38°02' E 023°31'0 0.0
2018-Jun-10 06:00N 38°02' E 023°31'0 0.4
2018-Jun-10 05:30N 38°02' E 023°31'4 7.4
2018-Jun-10 05:00N 37°59' E 023°32'0 0.6
2018-Jun-10 04:30N 37°58' E 023°32'0 0.6
2018-Jun-10 04:00N 37°59' E 023°32'3 6.8
2018-Jun-10 03:30N 38°02' E 023°31'0 1.0
2018-Jun-10 03:00N 38°02' E 023°31'0 0.0
2018-Jun-10 02:29N 38°02' E 023°31'0 0.0
2018-Jun-10 01:59N 38°02' E 023°31'0 0.0
2018-Jun-10 01:30N 38°02' E 023°31'0 0.0
2018-Jun-10 01:00N 38°02' E 023°31'0 0.0
2018-Jun-10 00:15N 38°02' E 023°31'0 0.0
2018-Jun-09 23:59N 38°02' E 023°31'0 0.7
2018-Jun-09 23:30N 38°02' E 023°31'4 7.7
2018-Jun-09 23:00N 38°01' E 023°36'0 0.0
2018-Jun-09 22:29N 38°01' E 023°36'0 0.0
2018-Jun-09 21:56N 38°01' E 023°36'0 0.0
2018-Jun-09 21:30N 38°01' E 023°36'0 0.0
2018-Jun-09 21:00N 38°01' E 023°36'0 0.0
2018-Jun-09 20:30N 38°01' E 023°36'0 0.0
2018-Jun-09 19:57N 38°01' E 023°36'0 0.0
2018-Jun-09 19:30N 38°01' E 023°36'0 0.0
2018-Jun-09 19:00N 38°01' E 023°36'0 0.0
2018-Jun-09 18:30N 38°01' E 023°36'0 0.0
2018-Jun-09 18:00N 38°01' E 023°36'0 0.0
2018-Jun-09 17:30N 38°01' E 023°36'3 5.6
2018-Jun-09 16:59N 37°59' E 023°33'4 1.7
2018-Jun-09 14:52N 38°02' E 023°31'0 0.0
2018-Jun-09 14:30N 38°02' E 023°31'0 0.0
2018-Jun-09 13:53N 38°02' E 023°31'0 0.0
2018-Jun-09 13:28N 38°02' E 023°31'0 0.0
2018-Jun-09 12:58N 38°02' E 023°31'0 0.2
2018-Jun-09 12:30N 38°02' E 023°30'0 0.0
2018-Jun-09 11:59N 38°02' E 023°30'0 0.0
2018-Jun-09 11:30N 38°02' E 023°30'0 0.0
2018-Jun-09 11:00N 38°02' E 023°30'0 0.0
2018-Jun-09 10:30N 38°02' E 023°30'0 0.7
2018-Jun-09 10:00N 38°02' E 023°31'0 0.0
2018-Jun-08 15:57N 38°02' E 023°31'1 2.2
2018-Jun-08 15:30N 38°01' E 023°31'4 8.0
2018-Jun-08 15:00N 37°58' E 023°33'0 0.8
2018-Jun-08 14:30N 37°57' E 023°33'0 0.2
2018-Jun-08 14:00N 37°57' E 023°33'0 0.0
2018-Jun-08 13:30N 37°57' E 023°33'0 0.0
2018-Jun-08 13:00N 37°57' E 023°33'0 0.0
2018-Jun-08 12:30N 37°57' E 023°33'0 0.0
2018-Jun-08 12:00N 37°57' E 023°33'0 0.0
2018-Jun-08 11:30N 37°57' E 023°33'0 0.0
2018-Jun-08 10:58N 37°57' E 023°33'0 0.0
2018-Jun-08 10:30N 37°57' E 023°33'0 0.0
2018-Jun-08 10:00N 37°57' E 023°33'0 0.0
2018-Jun-08 09:31N 37°57' E 023°33'0 0.0
2018-Jun-08 09:00N 37°57' E 023°33'0 0.0
2018-Jun-08 08:30N 37°57' E 023°33'0 0.0
2018-Jun-08 08:00N 37°57' E 023°33'0 0.0
2018-Jun-08 07:30N 37°57' E 023°33'0 0.0
2018-Jun-08 07:00N 37°57' E 023°33'0 0.0
2018-Jun-08 06:30N 37°57' E 023°33'0 0.0
2018-Jun-08 06:00N 37°57' E 023°33'0 0.0
2018-Jun-08 05:30N 37°57' E 023°33'0 0.0
2018-Jun-08 05:00N 37°57' E 023°33'0 0.0
2018-Jun-08 04:30N 37°57' E 023°33'0 0.0
2018-Jun-08 04:00N 37°57' E 023°33'0 0.0
2018-Jun-08 03:30N 37°57' E 023°33'0 0.0
2018-Jun-08 03:00N 37°57' E 023°33'0 0.0
2018-Jun-08 02:30N 37°57' E 023°33'0 0.0
2018-Jun-08 02:00N 37°57' E 023°33'0 0.0
2018-Jun-08 01:30N 37°57' E 023°33'0 0.0
2018-Jun-08 01:00N 37°57' E 023°33'0 0.0
2018-Jun-08 00:30N 37°57' E 023°33'0 0.0
2018-Jun-08 00:00N 37°57' E 023°33'0 0.0
2018-Jun-07 23:30N 37°57' E 023°33'0 0.0
2018-Jun-07 23:00N 37°57' E 023°33'0 0.0
2018-Jun-07 22:30N 37°57' E 023°33'0 0.0
2018-Jun-07 22:00N 37°57' E 023°33'0 0.0
2018-Jun-07 21:30N 37°57' E 023°33'0 0.0
2018-Jun-07 21:00N 37°57' E 023°33'0 0.0
2018-Jun-07 20:30N 37°57' E 023°33'0 0.0
2018-Jun-07 20:00N 37°57' E 023°33'0 0.0
2018-Jun-07 19:30N 37°57' E 023°33'0 0.0
2018-Jun-07 19:00N 37°57' E 023°33'0 0.0
2018-Jun-07 18:30N 37°57' E 023°33'0 0.0
2018-Jun-07 18:00N 37°57' E 023°33'0 0.0
2018-Jun-07 17:30N 37°57' E 023°33'0 0.0
2018-Jun-07 17:00N 37°57' E 023°33'0 0.0
2018-Jun-07 16:30N 37°57' E 023°33'0 0.0
2018-Jun-07 16:00N 37°57' E 023°33'0 0.0
2018-Jun-07 15:30N 37°57' E 023°33'0 0.0
2018-Jun-07 15:00N 37°57' E 023°33'0 0.0
2018-Jun-07 14:30N 37°57' E 023°33'0 0.0
2018-Jun-07 14:00N 37°57' E 023°33'0 0.0
2018-Jun-07 13:30N 37°57' E 023°33'0 0.0
2018-Jun-07 13:00N 37°57' E 023°33'0 0.0
2018-Jun-07 12:30N 37°57' E 023°33'  

Dump ship's entire track history